Virginia Point, Texas
Current Conditions -  °F | °C
As of 2:52 AM on Monday 20 Oct 2014 (Local Time) from KGLS Reporting Station
Clear Clear  
Wind Chill: 73°   Ceiling: Unl
Heat Index: 73°   Visibility: 10mi
Dew Point: 66°   Wind: 9mph
Humidity: 79%   Direction: 80°E
Pressure: 30.01"   Gusts: NA
Location:  29.3093°N, 94.7816°W
Report Text: KGLS 200752Z AUTO 08008KT 10SM CLR 23/19 A3001 RMK AO2 SLP163 T02280189
Loading
Personal Weather Stations






























Interactive Weather Map
Tropical Storm Tracking
New forecast layout! Learn more

10-Day Weather Forecast

Advertisements
Track Severe Weather on mobile